Time;durP1;ratioP1;P1;durP2;ratioP2;P2;SDS_P1;SDS_P2;PMS_P1;PMS_P2;Temp;Humidity;BMP_temperature;BMP_pressure;BME280_temperature;BME280_humidity;BME280_pressure;Samples;Min_cycle;Max_cycle;Signal;HPM_P1;HPM_P2
2022/01/17 00:00:12;;;;;;;29.00;7.82;;;;;;;6.60;79.55;102951.41;10483669;28;20041;-83
2022/01/17 00:05:18;;;;;;;21.50;7.10;;;;;;;6.58;79.43;102942.75;10493505;28;20123;-85
2022/01/17 00:10:20;;;;;;;18.52;5.75;;;;;;;6.53;78.77;102938.06;10488138;28;20126;-82
2022/01/17 00:15:28;;;;;;;14.77;3.42;;;;;;;6.52;76.50;102937.16;10487751;28;20136;-84
2022/01/17 00:20:31;;;;;;;18.92;4.10;;;;;;;6.51;75.64;102930.28;10508765;28;20048;-84
2022/01/17 00:25:33;;;;;;;15.23;3.17;;;;;;;6.55;76.96;102929.72;10476311;28;20127;-84
2022/01/17 00:30:35;;;;;;;18.05;3.35;;;;;;;6.48;76.71;102930.91;10488139;28;20045;-84
2022/01/17 00:35:37;;;;;;;14.25;3.00;;;;;;;6.47;77.24;102934.25;10480649;28;20098;-84
2022/01/17 00:40:42;;;;;;;12.98;3.33;;;;;;;6.45;77.43;102925.56;10486514;28;20136;-86
2022/01/17 00:45:44;;;;;;;16.75;3.03;;;;;;;6.48;77.17;102941.16;10469944;28;20072;-83
2022/01/17 00:50:47;;;;;;;15.68;2.78;;;;;;;6.51;76.83;102946.50;10496635;28;20049;-84
2022/01/17 00:55:48;;;;;;;15.07;3.17;;;;;;;6.44;76.52;102945.94;10467371;28;20049;-81
2022/01/17 01:00:50;;;;;;;11.55;2.22;;;;;;;6.34;77.44;102940.13;10488989;28;20048;-82
2022/01/17 01:05:52;;;;;;;11.73;1.85;;;;;;;6.37;75.77;102941.13;10475101;28;20060;-83
2022/01/17 01:10:55;;;;;;;11.07;1.65;;;;;;;6.42;75.00;102950.06;10491461;28;20123;-84
2022/01/17 01:31:57;;;;;;;12.93;1.37;;;;;;;6.38;74.40;102942.91;10489536;28;20079;-85
2022/01/17 01:36:59;;;;;;;14.43;2.07;;;;;;;6.32;74.92;102939.09;10475089;28;20386;-86
2022/01/17 01:42:03;;;;;;;8.60;1.02;;;;;;;6.19;75.07;102936.38;10474468;28;20055;-84
2022/01/17 01:47:04;;;;;;;7.18;1.30;;;;;;;6.19;75.22;102957.75;10477505;28;20048;-84
2022/01/17 01:52:06;;;;;;;14.93;1.85;;;;;;;6.15;75.23;102949.72;10476450;28;20044;-84
2022/01/17 01:57:09;;;;;;;13.18;2.00;;;;;;;6.10;75.31;102945.91;10491397;28;20048;-85
2022/01/17 02:02:13;;;;;;;14.45;1.85;;;;;;;6.06;74.83;102949.91;10472606;28;20057;-84
2022/01/17 02:07:15;;;;;;;18.60;1.92;;;;;;;5.95;76.00;102949.03;10478602;28;20051;-85
2022/01/17 02:12:20;;;;;;;14.05;3.25;;;;;;;6.11;76.17;102969.06;10546589;28;20048;-85
2022/01/17 02:17:24;;;;;;;10.90;1.85;;;;;;;6.07;76.67;102976.41;10556665;28;20047;-85
2022/01/17 02:22:26;;;;;;;14.32;2.20;;;;;;;6.05;76.90;102972.81;10523858;28;20437;-84
2022/01/17 02:27:30;;;;;;;24.95;3.33;;;;;;;6.10;77.25;102966.38;10505336;28;20052;-84
2022/01/17 02:32:33;;;;;;;21.85;2.70;;;;;;;5.97;76.94;102962.84;10498346;28;20097;-83
2022/01/17 02:37:35;;;;;;;21.75;2.42;;;;;;;6.14;74.85;102956.50;10479111;28;20082;-83
2022/01/17 02:42:37;;;;;;;12.25;1.75;;;;;;;6.18;74.49;102957.63;10469767;28;20045;-84
2022/01/17 02:47:39;;;;;;;15.80;2.10;;;;;;;6.14;75.23;102963.31;10501448;28;20418;-85
2022/01/17 02:52:43;;;;;;;19.73;2.67;;;;;;;6.16;75.85;102964.28;10496175;28;20123;-85
2022/01/17 02:57:45;;;;;;;18.38;3.35;;;;;;;6.16;76.43;102970.31;10490870;28;20071;-84
2022/01/17 03:02:49;;;;;;;13.95;2.95;;;;;;;6.15;76.42;102960.84;10527368;28;20044;-85
2022/01/17 03:07:52;;;;;;;18.05;3.20;;;;;;;6.03;77.01;102965.91;10518236;28;20496;-85
2022/01/17 03:13:04;;;;;;;17.60;3.85;;;;;;;6.12;77.00;102970.84;10502455;28;20141;-85
2022/01/17 03:18:06;;;;;;;21.08;4.30;;;;;;;6.08;76.92;102962.81;10507166;28;20040;-85
2022/01/17 03:23:09;;;;;;;25.25;4.78;;;;;;;5.94;77.27;102949.81;10500730;28;20048;-86
2022/01/17 03:28:11;;;;;;;21.38;4.90;;;;;;;5.79;76.41;102938.38;10515719;28;20484;-86
2022/01/17 03:33:15;;;;;;;18.73;4.15;;;;;;;5.73;76.71;102959.28;10534439;28;20127;-85
2022/01/17 03:38:23;;;;;;;16.27;3.00;;;;;;;5.83;74.75;102966.00;10479286;28;20052;-84
2022/01/17 03:43:25;;;;;;;21.13;2.42;;;;;;;5.87;73.61;102981.72;10514378;28;20040;-84
2022/01/17 03:48:28;;;;;;;8.38;1.40;;;;;;;5.86;73.67;102977.38;10482732;28;20110;-84
2022/01/17 03:53:31;;;;;;;11.93;1.95;;;;;;;5.86;73.36;102979.00;10464994;28;20044;-82
2022/01/17 03:58:32;;;;;;;11.45;1.95;;;;;;;5.62;74.28;102973.75;10483420;28;20044;-84
2022/01/17 04:03:34;;;;;;;23.05;2.22;;;;;;;5.45;74.10;102989.41;10464872;28;20045;-85
2022/01/17 04:08:36;;;;;;;15.23;1.92;;;;;;;5.31;75.43;102968.75;10523235;28;20050;-84
2022/01/17 04:13:38;;;;;;;13.40;2.33;;;;;;;4.92;76.07;102951.97;10559234;28;20094;-82
2022/01/17 04:18:39;;;;;;;9.98;1.60;;;;;;;4.85;76.83;102970.09;10494825;28;20074;-83
2022/01/17 04:23:41;;;;;;;12.15;1.83;;;;;;;4.76;76.11;102986.44;10483408;28;20055;-83
2022/01/17 04:28:43;;;;;;;11.38;1.45;;;;;;;4.54;77.08;102988.84;10499787;28;20048;-84
2022/01/17 04:33:45;;;;;;;16.05;1.83;;;;;;;4.56;77.89;103011.97;10483113;28;20044;-82
2022/01/17 04:38:47;;;;;;;24.35;2.47;;;;;;;4.37;77.76;103000.19;10479920;28;20052;-80
2022/01/17 04:48:50;;;;;;;15.68;2.10;;;;;;;4.34;79.00;102994.84;10530338;28;20490;-82
2022/01/17 04:54:14;;;;;;;13.95;1.42;;;;;;;4.22;78.99;102996.34;10528009;28;20044;-83
2022/01/17 04:59:13;;;;;;;6.85;1.30;;;;;;;4.25;78.94;102996.63;10498513;28;20045;-84
2022/01/17 05:04:15;;;;;;;14.55;2.17;;;;;;;4.16;79.78;102988.16;10464344;28;20045;-83
2022/01/17 05:09:17;;;;;;;11.98;1.80;;;;;;;4.07;80.02;103009.56;10514941;28;20049;-83
2022/01/17 05:14:19;;;;;;;14.82;1.95;;;;;;;4.17;80.63;103015.47;10476541;28;20055;-83
2022/01/17 05:24:41;;;;;;;17.60;1.95;;;;;;;4.17;81.27;103011.25;10451474;28;20052;-82
2022/01/17 05:29:43;;;;;;;22.02;2.80;;;;;;;4.43;81.22;103016.03;10468115;28;20048;-83
2022/01/17 05:34:47;;;;;;;19.55;1.48;;;;;;;4.57;81.87;103014.66;10475936;28;20407;-83
2022/01/17 05:39:48;;;;;;;14.13;1.92;;;;;;;4.68;81.74;103018.09;10475911;28;20039;-84
2022/01/17 05:44:51;;;;;;;17.95;1.98;;;;;;;4.71;81.64;103018.38;10475419;28;20079;-84
2022/01/17 05:49:52;;;;;;;14.52;1.73;;;;;;;4.67;81.23;103033.31;10518977;28;20083;-83
2022/01/17 05:54:54;;;;;;;14.65;2.15;;;;;;;4.70;81.22;103026.81;10542143;28;20105;-83
2022/01/17 05:59:56;;;;;;;14.93;1.85;;;;;;;4.76;81.08;103018.78;10496290;28;20055;-84
2022/01/17 06:04:57;;;;;;;13.30;2.38;;;;;;;4.73;81.46;103027.03;10489014;28;20127;-82
2022/01/17 06:09:59;;;;;;;19.33;2.42;;;;;;;4.72;81.65;103035.50;10522171;28;20068;-83
2022/01/17 06:15:01;;;;;;;14.27;1.98;;;;;;;4.86;81.49;103039.19;10507332;28;20072;-83
2022/01/17 06:20:04;;;;;;;18.77;2.90;;;;;;;4.92;82.18;103044.81;10523840;28;20059;-84
2022/01/17 06:25:06;;;;;;;9.75;2.38;;;;;;;4.78;82.38;103035.09;10514314;28;20110;-82
2022/01/17 06:30:08;;;;;;;11.98;2.20;;;;;;;4.59;82.77;103027.53;10494597;28;20047;-83
2022/01/17 06:35:11;;;;;;;11.48;2.28;;;;;;;4.71;82.82;103013.28;10513600;28;20048;-83
2022/01/17 06:40:13;;;;;;;15.00;2.40;;;;;;;4.60;83.55;103003.81;10515304;28;20052;-83
2022/01/17 06:45:15;;;;;;;12.57;2.75;;;;;;;4.51;83.88;102982.59;10502053;28;20503;-83
2022/01/17 06:50:17;;;;;;;18.15;2.88;;;;;;;4.64;84.31;102989.63;10484615;28;20042;-83
2022/01/17 06:55:19;;;;;;;19.02;2.95;;;;;;;4.72;84.12;103009.97;10527576;28;20074;-83
2022/01/17 07:00:20;;;;;;;21.83;3.22;;;;;;;4.75;84.34;103035.72;10495905;28;20131;-83
2022/01/17 07:05:26;;;;;;;15.77;3.13;;;;;;;4.82;84.36;103036.25;10519220;28;20292;-82
2022/01/17 07:10:28;;;;;;;18.40;4.28;;;;;;;4.97;84.59;103082.63;10482453;28;20173;-83
2022/01/17 07:15:30;;;;;;;15.52;4.53;;;;;;;5.03;84.75;103047.38;10476971;28;20059;-83
2022/01/17 07:20:33;;;;;;;24.75;4.70;;;;;;;5.11;84.43;103041.22;10493828;28;20048;-82
2022/01/17 07:25:38;;;;;;;23.67;5.30;;;;;;;5.08;84.53;103031.66;10482828;28;20482;-82
2022/01/17 07:30:40;;;;;;;24.27;5.93;;;;;;;5.14;85.11;103035.47;10493077;28;20118;-83
2022/01/17 07:35:44;;;;;;;26.20;7.85;;;;;;;5.16;85.10;103049.28;10476694;28;20051;-83
2022/01/17 07:40:46;;;;;;;19.75;7.38;;;;;;;5.27;85.38;103061.28;10478774;28;20082;-83
2022/01/17 07:46:03;;;;;;;27.67;7.88;;;;;;;5.41;85.28;103072.63;10478141;28;20437;-83
2022/01/17 07:51:04;;;;;;;25.33;8.55;;;;;;;5.53;84.70;103062.53;10533519;28;20479;-85
2022/01/17 07:56:06;;;;;;;20.10;9.10;;;;;;;5.56;84.55;103070.41;10495572;28;20048;-82
2022/01/17 08:01:08;;;;;;;35.75;9.65;;;;;;;5.56;84.80;103070.41;10476735;28;20046;-84
2022/01/17 08:06:11;;;;;;;29.23;9.90;;;;;;;5.69;84.58;103086.03;10476483;28;20074;-84
2022/01/17 08:11:14;;;;;;;30.95;11.13;;;;;;;5.74;84.13;103082.94;10476780;28;20165;-84
2022/01/17 08:16:15;;;;;;;26.85;11.18;;;;;;;5.62;84.50;103087.94;10475006;28;20048;-82
2022/01/17 08:21:17;;;;;;;27.10;10.82;;;;;;;5.63;84.71;103082.94;10489934;28;20085;-82
2022/01/17 08:26:20;;;;;;;29.25;12.05;;;;;;;5.89;83.90;103073.94;10512993;28;20048;-85
2022/01/17 08:31:22;;;;;;;28.27;11.68;;;;;;;5.81;84.02;103074.97;10507824;28;20048;-83
2022/01/17 08:36:31;;;;;;;30.67;12.82;;;;;;;5.89;84.06;103094.41;10491982;28;20044;-82
2022/01/17 08:41:33;;;;;;;41.58;12.23;;;;;;;5.98;83.81;103087.47;10460312;28;20049;-82
2022/01/17 08:46:34;;;;;;;27.88;13.15;;;;;;;6.08;83.64;103060.06;10493670;28;20048;-82
2022/01/17 08:51:37;;;;;;;26.83;11.38;;;;;;;6.02;84.21;103071.59;10491218;28;20044;-83
2022/01/17 08:56:38;;;;;;;28.15;11.27;;;;;;;6.06;84.53;103092.34;10491055;28;20534;-83
2022/01/17 09:01:40;;;;;;;39.45;11.35;;;;;;;5.98;85.08;103090.03;10492204;28;20518;-83
2022/01/17 09:06:42;;;;;;;35.33;10.90;;;;;;;5.92;85.69;103079.28;10475337;28;20044;-82
2022/01/17 09:11:44;;;;;;;34.65;11.20;;;;;;;6.05;85.38;103090.53;10474673;28;20079;-84
2022/01/17 09:16:46;;;;;;;29.98;11.48;;;;;;;6.09;85.52;103110.47;10508546;28;20060;-83
2022/01/17 09:21:47;;;;;;;32.22;10.77;;;;;;;6.06;86.02;103120.47;10475174;28;20182;-83
2022/01/17 09:26:49;;;;;;;31.38;10.23;;;;;;;6.20;85.37;103122.47;10481821;28;20044;-84
2022/01/17 09:31:51;;;;;;;28.52;10.63;;;;;;;6.10;85.31;103122.50;10500386;28;20062;-83
2022/01/17 09:36:55;;;;;;;28.83;9.43;;;;;;;6.12;85.40;103123.53;10483843;28;20461;-82
2022/01/17 09:41:57;;;;;;;32.15;9.65;;;;;;;6.19;85.02;103130.91;10482045;28;20437;-82
2022/01/17 09:47:01;;;;;;;33.20;8.98;;;;;;;6.20;85.50;103142.94;10495599;28;20070;-83
2022/01/17 09:57:19;;;;;;;35.92;9.60;;;;;;;6.35;84.25;103181.66;10515935;28;20068;-82
2022/01/17 10:02:21;;;;;;;27.80;9.25;;;;;;;6.47;83.85;103153.59;10482948;28;20093;-82
2022/01/17 10:07:25;;;;;;;31.17;9.43;;;;;;;6.55;83.95;103162.75;10499179;28;20044;-84
2022/01/17 10:12:27;;;;;;;23.92;8.75;;;;;;;6.62;84.19;103154.78;10482087;28;20548;-83
2022/01/17 10:17:47;;;;;;;22.55;8.82;;;;;;;6.61;84.44;103150.44;10481825;28;20079;-82
2022/01/17 10:23:16;;;;;;;23.67;9.25;;;;;;;6.80;84.32;103157.00;10498303;28;20415;-83
2022/01/17 10:39:07;;;;;;;25.50;7.20;;;;;;;6.97;83.91;103168.56;10480706;28;20068;-83
2022/01/17 10:44:09;;;;;;;34.53;7.32;;;;;;;7.09;83.47;103171.16;10480392;28;20421;-85
2022/01/17 10:49:10;;;;;;;23.35;6.43;;;;;;;7.12;83.42;103177.44;10494642;28;20044;-84
2022/01/17 10:54:14;;;;;;;28.23;6.43;;;;;;;7.19;82.83;103168.50;10481171;28;20049;-83
2022/01/17 10:59:26;;;;;;;29.38;5.65;;;;;;;7.39;82.87;103170.03;10480281;28;20068;-83
2022/01/17 11:04:37;;;;;;;28.45;5.10;;;;;;;7.50;82.48;103193.03;10464039;28;20517;-84
2022/01/17 11:09:41;;;;;;;33.70;5.15;;;;;;;7.39;82.59;103221.31;10479892;28;20041;-83
2022/01/17 11:14:43;;;;;;;30.05;5.22;;;;;;;7.44;82.10;103219.13;10496506;28;20469;-83
2022/01/17 11:20:05;;;;;;;23.58;4.68;;;;;;;7.46;81.98;103228.72;10479595;28;20075;-83
2022/01/17 11:25:31;;;;;;;19.48;3.88;;;;;;;7.41;82.68;103204.38;10495845;28;20098;-84
2022/01/17 11:30:35;;;;;;;18.60;4.30;;;;;;;7.46;82.08;103197.06;10469176;28;20044;-83
2022/01/17 11:35:45;;;;;;;24.15;3.75;;;;;;;7.35;82.13;103185.06;10479640;28;20048;-84
2022/01/17 11:40:47;;;;;;;36.28;4.60;;;;;;;7.54;82.30;103185.69;10478668;28;20056;-84
2022/01/17 11:45:54;;;;;;;18.83;3.90;;;;;;;7.50;81.62;103199.06;10485760;28;20195;-84
2022/01/17 11:51:19;;;;;;;19.60;3.53;;;;;;;7.59;82.03;103214.25;10494511;28;20476;-85
2022/01/17 11:56:43;;;;;;;24.13;4.28;;;;;;;7.62;81.41;103225.66;10478671;28;20063;-83
2022/01/17 12:02:10;;;;;;;27.08;3.72;;;;;;;7.75;81.83;103216.31;10477836;28;20453;-84
2022/01/17 12:07:12;;;;;;;25.35;4.22;;;;;;;7.84;81.04;103217.00;10472117;28;20095;-84
2022/01/17 12:12:15;;;;;;;35.30;4.20;;;;;;;7.83;80.66;103220.34;10477115;28;20063;-83
2022/01/17 12:17:20;;;;;;;27.30;3.88;;;;;;;8.00;80.43;103206.16;10477895;28;20059;-82
2022/01/17 12:22:22;;;;;;;18.40;2.97;;;;;;;8.09;80.48;103172.56;10493366;28;20565;-84
2022/01/17 12:27:28;;;;;;;25.05;3.40;;;;;;;8.08;80.04;103176.81;10477397;28;20040;-83
2022/01/17 12:32:34;;;;;;;30.25;3.45;;;;;;;8.31;79.65;103204.94;10476238;28;20044;-84
2022/01/17 12:37:39;;;;;;;23.45;3.08;;;;;;;8.37;79.37;103213.09;10474014;28;20044;-84
2022/01/17 12:42:50;;;;;;;28.85;3.75;;;;;;;8.54;77.98;103220.34;10512065;28;20135;-83
2022/01/17 12:47:53;;;;;;;21.98;2.95;;;;;;;8.59;78.24;103227.53;10477106;28;20554;-83
2022/01/17 12:52:57;;;;;;;23.75;2.80;;;;;;;8.70;78.26;103190.63;10492631;28;20507;-84
2022/01/17 12:57:58;;;;;;;35.00;3.72;;;;;;;8.83;78.15;103197.50;10475874;28;20101;-83
2022/01/17 13:03:01;;;;;;;25.90;3.83;;;;;;;8.80;77.74;103171.59;10506380;28;20048;-84
2022/01/17 13:08:04;;;;;;;30.80;3.58;;;;;;;8.80;77.65;103175.06;10492788;28;20116;-83
2022/01/17 13:13:22;;;;;;;26.70;3.47;;;;;;;8.82;77.57;103181.22;10478866;28;20037;-83
2022/01/17 13:18:27;;;;;;;23.58;2.92;;;;;;;8.96;77.57;103197.56;10491467;28;20044;-84
2022/01/17 13:24:35;;;;;;;32.30;3.95;;;;;;;8.92;77.44;103205.88;10459601;28;20051;-83
2022/01/17 13:29:18;;;;;;;34.25;3.70;;;;;;;8.96;77.97;103192.44;10469785;28;20052;-83
2022/01/17 13:34:27;;;;;;;28.27;3.50;;;;;;;8.92;77.71;103203.31;10476085;28;20047;-82
2022/01/17 13:39:30;;;;;;;26.45;5.15;;;;;;;8.92;77.48;103195.59;10473862;28;20083;-83
2022/01/17 13:44:37;;;;;;;28.75;3.72;;;;;;;8.98;78.16;103210.53;10482538;28;20679;-84
2022/01/17 13:49:42;;;;;;;28.98;3.33;;;;;;;8.80;77.89;103236.75;10513417;28;20121;-83
2022/01/17 13:54:47;;;;;;;31.48;3.08;;;;;;;8.80;78.45;103243.56;10479262;28;20045;-84
2022/01/17 14:00:07;;;;;;;29.83;3.55;;;;;;;8.81;78.70;103235.97;10483498;28;20131;-83
2022/01/17 14:05:11;;;;;;;42.75;3.58;;;;;;;8.91;77.84;103236.59;10483219;28;20053;-82
2022/01/17 14:10:19;;;;;;;31.05;3.63;;;;;;;8.96;78.33;103219.84;10509710;28;20044;-82
2022/01/17 14:15:27;;;;;;;30.25;3.60;;;;;;;8.91;77.98;103216.03;10482331;28;20037;-82
2022/01/17 14:20:29;;;;;;;47.67;4.35;;;;;;;8.78;79.19;103204.91;10464935;28;20090;-83
2022/01/17 14:25:36;;;;;;;33.10;4.45;;;;;;;8.87;78.40;103223.53;10481603;28;20058;-82
2022/01/17 14:30:38;;;;;;;32.50;4.47;;;;;;;8.69;78.89;103242.78;10481722;28;20053;-83
2022/01/17 14:36:12;;;;;;;33.63;3.95;;;;;;;8.66;78.56;103266.59;10481471;28;20040;-82
2022/01/17 14:41:33;;;;;;;29.60;4.90;;;;;;;8.76;78.30;103278.44;10477470;28;20040;-82
2022/01/17 14:46:50;;;;;;;28.98;3.60;;;;;;;8.72;78.79;103276.44;10505859;28;20044;-83
2022/01/17 14:52:00;;;;;;;41.70;5.40;;;;;;;8.71;78.69;103285.81;10493059;28;20052;-82
2022/01/17 15:02:28;;;;;;;36.13;4.22;;;;;;;8.78;78.63;103329.97;10506153;28;20499;-82
2022/01/17 15:07:32;;;;;;;30.17;4.63;;;;;;;8.71;78.39;103339.78;10480740;28;20040;-84
2022/01/17 15:12:36;;;;;;;28.85;3.42;;;;;;;8.72;78.67;103338.13;10459868;28;20311;-83
2022/01/17 15:17:40;;;;;;;31.58;3.65;;;;;;;8.75;78.90;103347.72;10483571;28;20052;-82
2022/01/17 15:22:43;;;;;;;38.10;4.07;;;;;;;8.65;79.36;103364.16;10491612;28;20407;-82
2022/01/17 15:27:51;;;;;;;31.52;4.63;;;;;;;8.62;80.34;103358.78;10466183;28;20075;-82
2022/01/17 15:32:53;;;;;;;27.67;3.83;;;;;;;8.49;81.61;103355.31;10488972;28;20084;-82
2022/01/17 15:37:55;;;;;;;31.30;4.18;;;;;;;8.31;81.27;103369.31;10501777;28;20101;-84
2022/01/17 15:42:57;;;;;;;27.95;3.33;;;;;;;8.31;80.74;103375.34;10525189;28;20110;-83
2022/01/17 15:47:59;;;;;;;26.95;4.20;;;;;;;8.43;80.23;103370.25;10490768;28;20059;-83
2022/01/17 15:53:02;;;;;;;26.92;3.10;;;;;;;8.24;80.22;103368.84;10506633;28;20514;-82
2022/01/17 15:58:04;;;;;;;32.40;4.88;;;;;;;8.29;79.82;103368.31;10519524;28;20029;-82
2022/01/17 16:03:07;;;;;;;25.33;3.10;;;;;;;8.26;78.62;103387.84;10498085;28;20098;-82
2022/01/17 16:08:09;;;;;;;25.90;3.70;;;;;;;8.34;77.96;103384.97;10486552;28;20061;-82
2022/01/17 16:13:11;;;;;;;23.20;3.75;;;;;;;8.35;78.37;103376.47;10498373;28;20499;-82
2022/01/17 16:18:15;;;;;;;31.08;3.80;;;;;;;8.22;78.62;103383.28;10489804;28;20071;-83
2022/01/17 16:23:18;;;;;;;30.13;3.97;;;;;;;8.34;78.76;103410.66;10473506;28;20079;-81
2022/01/17 16:28:21;;;;;;;31.35;3.97;;;;;;;8.40;78.53;103416.25;10489715;28;20439;-82
2022/01/17 16:33:26;;;;;;;32.88;4.30;;;;;;;8.39;78.94;103419.59;10498270;28;20056;-82
2022/01/17 16:38:38;;;;;;;27.90;3.30;;;;;;;8.39;78.62;103417.94;10492871;28;20076;-82
2022/01/17 16:43:41;;;;;;;29.17;3.63;;;;;;;8.40;78.52;103426.53;10494424;28;20056;-82
2022/01/17 16:48:44;;;;;;;37.80;4.07;;;;;;;8.37;79.17;103431.44;10500999;28;20040;-82
2022/01/17 16:53:46;;;;;;;27.05;3.33;;;;;;;8.22;79.15;103436.28;10522995;28;20495;-82
2022/01/17 16:58:47;;;;;;;28.77;3.65;;;;;;;8.11;79.69;103432.91;10474365;28;20495;-83
2022/01/17 17:03:51;;;;;;;24.90;3.80;;;;;;;8.07;79.55;103446.31;10500112;28;20593;-82
2022/01/17 17:08:53;;;;;;;34.90;3.72;;;;;;;7.97;79.60;103459.19;10484666;28;20072;-82
2022/01/17 17:13:55;;;;;;;26.98;4.30;;;;;;;7.90;80.19;103471.56;10480849;28;20063;-83
2022/01/17 17:18:58;;;;;;;31.40;4.65;;;;;;;8.00;80.06;103483.44;10489227;28;20487;-82
2022/01/17 17:24:00;;;;;;;31.30;3.55;;;;;;;8.02;79.80;103488.69;10494931;28;20131;-83
2022/01/17 17:29:02;;;;;;;26.08;2.97;;;;;;;7.98;80.27;103497.81;10476137;28;20526;-83
2022/01/17 17:34:05;;;;;;;29.70;3.22;;;;;;;7.86;79.77;103502.88;10507187;28;20504;-82
2022/01/17 17:39:08;;;;;;;22.48;3.20;;;;;;;7.71;80.73;103501.66;10501594;28;20070;-83
2022/01/17 17:44:10;;;;;;;22.20;3.10;;;;;;;7.65;80.33;103499.53;10471467;28;20043;-83
2022/01/17 17:49:12;;;;;;;22.38;2.75;;;;;;;7.64;80.38;103500.28;10477972;28;20052;-83
2022/01/17 17:54:14;;;;;;;21.48;2.80;;;;;;;7.52;80.83;103502.78;10484335;28;20254;-82
2022/01/17 17:59:19;;;;;;;21.25;3.67;;;;;;;7.24;81.50;103505.69;10477403;28;20077;-82
2022/01/17 18:04:22;;;;;;;33.70;3.25;;;;;;;7.19;80.94;103498.38;10497904;28;20237;-82
2022/01/17 18:09:24;;;;;;;31.63;3.70;;;;;;;7.12;81.03;103502.09;10496610;28;20066;-83
2022/01/17 18:14:26;;;;;;;24.08;3.00;;;;;;;6.94;81.14;103502.41;10497982;28;20052;-82
2022/01/17 18:19:27;;;;;;;26.00;3.15;;;;;;;6.94;81.55;103512.66;10481147;28;20090;-83
2022/01/17 18:24:30;;;;;;;27.55;3.55;;;;;;;6.88;82.48;103512.16;10497725;28;20109;-83
2022/01/17 18:29:31;;;;;;;21.70;2.40;;;;;;;6.95;82.35;103514.44;10496952;28;20084;-83
2022/01/17 18:34:39;;;;;;;28.35;3.60;;;;;;;6.99;82.49;103528.41;10475615;28;20057;-82
2022/01/17 18:39:40;;;;;;;30.40;3.03;;;;;;;7.12;82.22;103522.59;10480501;28;20032;-82
2022/01/17 18:44:42;;;;;;;29.02;3.72;;;;;;;7.24;83.03;103528.75;10481781;28;20097;-82
2022/01/17 18:49:44;;;;;;;33.60;3.65;;;;;;;7.44;82.01;103532.03;10504157;28;20071;-82
2022/01/17 18:54:46;;;;;;;29.67;4.38;;;;;;;7.54;82.33;103542.28;10498241;28;20127;-82
2022/01/17 18:59:48;;;;;;;37.53;3.47;;;;;;;7.60;81.78;103544.41;10511758;28;20155;-83
2022/01/17 19:04:50;;;;;;;27.08;3.42;;;;;;;7.58;81.89;103534.03;10482606;28;20140;-83
2022/01/17 19:09:53;;;;;;;34.20;4.30;;;;;;;7.61;82.09;103551.34;10474491;28;20102;-83
2022/01/17 19:14:55;;;;;;;33.65;3.55;;;;;;;7.73;81.59;103541.19;10493685;28;20056;-84
2022/01/17 19:25:04;;;;;;;31.95;3.53;;;;;;;7.59;81.97;103538.41;10498563;28;20044;-83
2022/01/17 19:30:06;;;;;;;46.78;3.75;;;;;;;7.55;82.17;103545.72;10493819;28;20078;-83
2022/01/17 19:35:08;;;;;;;35.45;4.10;;;;;;;7.64;82.40;103556.75;10493891;28;20139;-83
2022/01/17 19:40:10;;;;;;;43.17;3.90;;;;;;;7.56;82.60;103568.06;10518518;28;20044;-83
2022/01/17 19:45:16;;;;;;;34.75;3.75;;;;;;;7.55;82.37;103582.56;10472780;28;20037;-83
2022/01/17 19:50:17;;;;;;;34.95;4.43;;;;;;;7.51;82.99;103595.88;10487838;28;20134;-83
2022/01/17 19:55:19;;;;;;;38.00;4.28;;;;;;;7.60;82.27;103591.53;10485376;28;20105;-83
2022/01/17 20:00:21;;;;;;;33.20;4.10;;;;;;;7.42;83.57;103600.25;10505003;28;20445;-83
2022/01/17 20:05:31;;;;;;;32.38;4.70;;;;;;;7.50;82.81;103603.47;10485085;28;20041;-83
2022/01/17 20:10:32;;;;;;;37.33;4.18;;;;;;;7.40;83.17;103597.56;10487867;28;20094;-83
2022/01/17 20:15:34;;;;;;;29.98;4.07;;;;;;;7.32;83.42;103613.13;10512432;28;20040;-83
2022/01/17 20:20:37;;;;;;;28.88;3.55;;;;;;;7.24;83.07;103621.06;10494978;28;20032;-83
2022/01/17 20:25:38;;;;;;;22.13;3.78;;;;;;;7.04;82.28;103615.91;10510532;28;20075;-83
2022/01/17 20:30:42;;;;;;;27.38;3.30;;;;;;;6.91;82.08;103630.28;10504559;28;20052;-83
2022/01/17 20:35:44;;;;;;;28.63;3.58;;;;;;;6.73;83.53;103631.28;10478166;28;20041;-83
2022/01/17 20:40:46;;;;;;;20.52;2.78;;;;;;;6.63;83.79;103633.03;10503388;28;20582;-83
2022/01/17 20:45:48;;;;;;;37.63;4.40;;;;;;;6.52;84.14;103623.53;10494637;28;20037;-83
2022/01/17 20:50:50;;;;;;;26.52;4.18;;;;;;;6.47;84.07;103629.91;10478152;28;20414;-83
2022/01/17 20:55:54;;;;;;;22.70;3.22;;;;;;;6.63;82.73;103647.50;10514430;28;20040;-82
2022/01/17 21:00:55;;;;;;;32.92;3.47;;;;;;;6.57;82.24;103663.25;10491431;28;20072;-83
2022/01/17 21:05:57;;;;;;;27.42;3.05;;;;;;;6.39;82.96;103664.19;10501844;28;20045;-82
2022/01/17 21:10:59;;;;;;;26.40;4.38;;;;;;;6.02;84.40;103677.22;10507011;28;20051;-83
2022/01/17 21:16:00;;;;;;;27.27;3.50;;;;;;;6.13;83.50;103679.06;10513852;28;20059;-83
2022/01/17 21:21:02;;;;;;;24.98;3.03;;;;;;;6.09;85.50;103681.22;10509367;28;20506;-82
2022/01/17 21:26:04;;;;;;;19.98;2.92;;;;;;;6.22;84.94;103684.09;10528279;28;20148;-83
2022/01/17 21:31:05;;;;;;;23.02;4.53;;;;;;;6.39;83.80;103682.13;10484954;28;20132;-83
2022/01/17 21:36:07;;;;;;;26.10;3.25;;;;;;;6.47;84.43;103676.03;10442916;28;20123;-83
2022/01/17 21:41:10;;;;;;;28.20;3.38;;;;;;;6.63;83.83;103689.41;10495892;28;20057;-83
2022/01/17 21:46:11;;;;;;;32.80;3.60;;;;;;;6.64;84.77;103668.16;10499389;28;20040;-83
2022/01/17 21:51:16;;;;;;;29.23;3.78;;;;;;;6.47;85.74;103668.34;10468708;28;20041;-83
2022/01/17 21:56:18;;;;;;;44.17;4.13;;;;;;;6.68;85.24;103666.75;10467385;28;20044;-83
2022/01/17 22:01:20;;;;;;;35.70;4.60;;;;;;;6.62;85.05;103667.13;10500673;28;20048;-83
2022/01/17 22:06:21;;;;;;;36.72;4.07;;;;;;;6.78;84.89;103668.44;10482664;28;20079;-83
2022/01/17 22:11:23;;;;;;;31.58;3.28;;;;;;;6.83;84.46;103669.72;10500338;28;20131;-83
2022/01/17 22:16:24;;;;;;;39.45;4.40;;;;;;;6.96;83.96;103670.00;10477677;28;20502;-83
2022/01/17 22:21:26;;;;;;;27.45;3.47;;;;;;;7.04;83.78;103677.44;10498435;28;20043;-83
2022/01/17 22:26:28;;;;;;;37.90;3.55;;;;;;;6.98;84.42;103673.59;10502795;28;20068;-83
2022/01/17 22:31:29;;;;;;;26.58;3.35;;;;;;;7.00;83.89;103676.28;10499754;28;20139;-84
2022/01/17 22:36:31;;;;;;;28.83;4.07;;;;;;;7.08;83.70;103659.00;10485696;28;20055;-83
2022/01/17 22:41:32;;;;;;;36.67;4.10;;;;;;;7.05;83.35;103669.91;10497945;28;20098;-84
2022/01/17 22:46:40;;;;;;;40.03;4.85;;;;;;;7.09;83.29;103671.06;10486573;28;20041;-83
2022/01/17 22:51:43;;;;;;;32.97;4.75;;;;;;;6.89;84.10;103683.06;10499836;28;20080;-84
2022/01/17 22:56:45;;;;;;;27.52;4.03;;;;;;;6.72;85.02;103693.53;10480414;28;20065;-83
2022/01/17 23:01:47;;;;;;;34.53;3.50;;;;;;;6.83;84.88;103695.34;10490394;28;20105;-83
2022/01/17 23:06:48;;;;;;;26.52;3.85;;;;;;;6.95;84.66;103693.84;10497051;28;20111;-83
2022/01/17 23:11:51;;;;;;;38.45;3.53;;;;;;;7.05;83.56;103694.63;10520350;28;20136;-84
2022/01/17 23:16:57;;;;;;;31.65;4.15;;;;;;;7.09;83.38;103701.81;10512372;28;20077;-84
2022/01/17 23:22:00;;;;;;;35.47;5.07;;;;;;;7.20;82.39;103698.50;10525143;28;20044;-84
2022/01/17 23:27:01;;;;;;;36.97;4.28;;;;;;;6.99;83.12;103701.03;10510693;28;20051;-83
2022/01/17 23:37:24;;;;;;;20.42;3.15;;;;;;;6.91;83.57;103696.91;10498642;28;20135;-84
2022/01/17 23:42:26;;;;;;;17.90;2.78;;;;;;;6.99;83.29;103698.47;10499598;28;20054;-83
2022/01/17 23:47:28;;;;;;;29.50;3.33;;;;;;;6.93;83.53;103695.38;10497986;28;20067;-83
2022/01/17 23:52:30;;;;;;;22.95;2.78;;;;;;;7.03;83.44;103696.19;10524004;28;20079;-83
2022/01/17 23:57:44;;;;;;;22.23;3.17;;;;;;;7.04;82.85;103693.72;10506331;28;20040;-83
